createdAt,value
2017-09-28T00:00:31.791Z,86.82
2017-09-28T00:01:33.675Z,87.11
2017-09-28T00:02:35.563Z,87.21
2017-09-28T00:03:37.449Z,86.82
2017-09-28T00:04:51.610Z,87.21
2017-09-28T00:05:53.533Z,86.92
2017-09-28T00:06:55.393Z,86.82
2017-09-28T00:07:57.280Z,86.92
2017-09-28T00:08:59.103Z,87.40
2017-09-28T00:10:00.921Z,87.11
2017-09-28T00:11:02.818Z,87.01
2017-09-28T00:12:04.708Z,87.11
2017-09-28T00:13:06.594Z,87.01
2017-09-28T00:14:20.753Z,87.01
2017-09-28T00:15:22.651Z,86.92
2017-09-28T00:16:24.536Z,86.72
2017-09-28T00:17:26.422Z,86.82
2017-09-28T00:18:28.255Z,86.92
2017-09-28T00:19:30.086Z,86.82
2017-09-28T00:20:31.973Z,86.63
2017-09-28T00:21:33.861Z,86.54
2017-09-28T00:22:35.749Z,86.63
2017-09-28T00:23:49.960Z,86.72
2017-09-28T00:24:51.845Z,86.82
2017-09-28T00:25:53.734Z,86.72
2017-09-28T00:26:55.622Z,87.11
2017-09-28T00:27:57.454Z,86.92
2017-09-28T00:28:59.284Z,86.92
2017-09-28T00:30:01.170Z,86.92
2017-09-28T00:31:03.055Z,87.30
2017-09-28T00:32:04.941Z,87.11
2017-09-28T00:33:19.102Z,87.21
2017-09-28T00:34:20.986Z,86.92
2017-09-28T00:35:22.883Z,86.72
2017-09-28T00:36:24.768Z,86.72
2017-09-28T00:37:26.589Z,86.72
2017-09-28T00:38:28.412Z,86.92
2017-09-28T00:39:30.346Z,87.01
2017-09-28T00:40:32.240Z,86.92
2017-09-28T00:41:34.128Z,87.11
2017-09-28T00:42:48.286Z,86.88
2017-09-28T00:43:50.170Z,86.97
2017-09-28T00:44:52.059Z,87.11
2017-09-28T00:45:53.946Z,86.63
2017-09-28T00:46:55.769Z,86.88
2017-09-28T00:47:57.590Z,87.11
2017-09-28T00:48:59.476Z,86.78
2017-09-28T00:50:01.362Z,86.78
2017-09-28T00:51:03.250Z,86.11
2017-09-28T00:52:17.413Z,87.07
2017-09-28T00:53:19.301Z,87.07
2017-09-28T00:54:21.184Z,87.07
2017-09-28T00:55:23.073Z,86.68
2017-09-28T00:56:24.895Z,86.88
2017-09-28T00:57:26.716Z,86.68
2017-09-28T00:58:28.604Z,86.72
2017-09-28T00:59:30.487Z,86.15
2017-09-28T01:00:32.375Z,86.15
2017-09-28T01:01:46.540Z,86.63
2017-09-28T01:02:48.424Z,86.05
2017-09-28T01:03:50.320Z,86.63
2017-09-28T01:04:52.210Z,86.25
2017-09-28T01:05:54.032Z,86.49
2017-09-28T01:06:55.854Z,85.92
2017-09-28T01:07:57.751Z,86.11
2017-09-28T01:08:59.638Z,86.49
2017-09-28T01:10:01.530Z,86.11
2017-09-28T01:11:15.687Z,86.15
2017-09-28T01:12:17.584Z,85.48
2017-09-28T01:13:19.469Z,85.77
2017-09-28T01:14:21.357Z,85.67
2017-09-28T01:15:23.178Z,85.67
2017-09-28T01:16:24.997Z,86.05
2017-09-28T01:17:26.884Z,85.77
2017-09-28T01:18:28.769Z,85.86
2017-09-28T01:19:30.652Z,85.86
2017-09-28T01:20:44.811Z,85.96
2017-09-28T01:21:46.708Z,85.77
2017-09-28T01:22:48.605Z,85.67
2017-09-28T01:23:50.496Z,85.86
2017-09-28T01:24:52.317Z,86.15
2017-09-28T01:25:54.139Z,85.96
2017-09-28T01:26:56.022Z,85.96
2017-09-28T01:27:57.917Z,85.58
2017-09-28T01:28:59.804Z,85.86
2017-09-28T01:30:13.963Z,85.77
2017-09-28T01:31:15.848Z,85.72
2017-09-28T01:32:17.737Z,85.63
2017-09-28T01:33:19.625Z,85.77
2017-09-28T01:34:21.446Z,85.67
2017-09-28T01:35:23.266Z,85.58
2017-09-28T01:36:25.153Z,85.67
2017-09-28T01:37:27.041Z,85.86
2017-09-28T01:38:28.927Z,85.58
2017-09-28T01:39:43.086Z,85.38
2017-09-28T01:40:44.981Z,85.58
2017-09-28T01:41:46.878Z,84.91
2017-09-28T01:42:48.772Z,85.67
2017-09-28T01:43:50.593Z,85.00
2017-09-28T01:44:52.428Z,85.19
2017-09-28T01:45:54.314Z,85.38
2017-09-28T01:46:56.202Z,85.58
2017-09-28T01:47:58.091Z,85.58
2017-09-28T01:49:17.281Z,85.38
2017-09-28T01:50:19.167Z,85.10
2017-09-28T01:51:21.049Z,86.05
2017-09-28T01:52:22.943Z,85.48
2017-09-28T01:53:24.764Z,85.28
2017-09-28T01:54:26.594Z,85.19
2017-09-28T01:55:28.480Z,85.19
2017-09-28T01:56:30.364Z,85.28
2017-09-28T01:57:32.249Z,84.81
2017-09-28T01:58:46.406Z,84.81
2017-09-28T01:59:48.293Z,84.71
2017-09-28T02:00:50.178Z,84.61
2017-09-28T02:01:52.074Z,84.61
2017-09-28T02:02:53.893Z,84.52
2017-09-28T02:03:55.726Z,84.61
2017-09-28T02:04:57.624Z,84.61
2017-09-28T02:05:59.508Z,84.61
2017-09-28T02:07:01.391Z,84.61
2017-09-28T02:08:15.609Z,84.42
2017-09-28T02:09:17.496Z,84.23
2017-09-28T02:10:19.390Z,84.42
2017-09-28T02:11:21.273Z,84.61
2017-09-28T02:12:23.102Z,84.61
2017-09-28T02:13:24.931Z,84.52
2017-09-28T02:14:26.816Z,84.23
2017-09-28T02:15:28.699Z,84.61
2017-09-28T02:16:30.584Z,84.61
2017-09-28T02:17:44.788Z,83.65
2017-09-28T02:18:46.671Z,84.23
2017-09-28T02:19:48.559Z,84.52
2017-09-28T02:20:50.441Z,84.14
2017-09-28T02:21:52.273Z,83.85
2017-09-28T02:22:54.098Z,84.71
2017-09-28T02:23:55.985Z,84.52
2017-09-28T02:24:57.859Z,83.65
2017-09-28T02:25:59.744Z,84.23
2017-09-28T02:27:13.950Z,83.94
2017-09-28T02:28:15.844Z,84.61
2017-09-28T02:29:17.738Z,84.23
2017-09-28T02:30:19.632Z,84.61
2017-09-28T02:31:21.450Z,84.81
2017-09-28T02:32:23.269Z,84.71
2017-09-28T02:33:25.154Z,84.04
2017-09-28T02:34:27.037Z,84.23
2017-09-28T02:35:28.921Z,84.04
2017-09-28T02:36:43.076Z,83.75
2017-09-28T02:37:44.957Z,84.61
2017-09-28T02:38:46.842Z,84.04
2017-09-28T02:39:48.727Z,84.42
2017-09-28T02:40:50.548Z,84.23
2017-09-28T02:41:52.362Z,84.23
2017-09-28T02:42:54.246Z,84.14
2017-09-28T02:43:56.159Z,83.94
2017-09-28T02:44:58.040Z,83.75
2017-09-28T02:46:12.195Z,84.23
2017-09-28T02:47:14.089Z,84.14
2017-09-28T02:48:15.982Z,84.23
2017-09-28T02:49:17.872Z,84.04
2017-09-28T02:50:19.684Z,84.23
2017-09-28T02:51:21.516Z,84.81
2017-09-28T02:52:23.400Z,84.52
2017-09-28T02:53:25.283Z,84.52
2017-09-28T02:54:27.178Z,84.61
2017-09-28T02:55:41.335Z,84.14
2017-09-28T02:56:43.217Z,84.23
2017-09-28T02:57:45.111Z,84.14
2017-09-28T02:58:46.999Z,84.14
2017-09-28T02:59:48.812Z,84.14
2017-09-28T03:00:50.629Z,84.04
2017-09-28T03:01:52.515Z,83.65
2017-09-28T03:02:54.397Z,84.61
2017-09-28T03:03:56.282Z,84.42
2017-09-28T03:05:10.435Z,83.56
2017-09-28T03:06:12.318Z,84.52
2017-09-28T03:07:14.213Z,84.61
2017-09-28T03:08:16.093Z,84.42
2017-09-28T03:09:17.913Z,84.81
2017-09-28T03:10:19.732Z,84.33
2017-09-28T03:11:21.622Z,84.23
2017-09-28T03:12:23.506Z,84.23
2017-09-28T03:13:25.391Z,83.94
2017-09-28T03:14:39.546Z,84.33
2017-09-28T03:15:41.428Z,84.81
2017-09-28T03:16:43.313Z,84.42
2017-09-28T03:17:45.194Z,84.61
2017-09-28T03:18:47.012Z,84.61
2017-09-28T03:19:48.842Z,84.42
2017-09-28T03:20:50.728Z,84.23
2017-09-28T03:21:52.609Z,84.48
2017-09-28T03:22:54.494Z,84.19
2017-09-28T03:24:08.697Z,84.42
2017-09-28T03:25:10.580Z,84.67
2017-09-28T03:26:12.473Z,84.19
2017-09-28T03:27:14.364Z,84.28
2017-09-28T03:28:16.174Z,84.38
2017-09-28T03:29:18.005Z,84.48
2017-09-28T03:30:19.888Z,84.48
2017-09-28T03:31:21.771Z,84.48
2017-09-28T03:32:23.657Z,84.86
2017-09-28T03:33:37.860Z,84.38
2017-09-28T03:34:39.741Z,84.58
2017-09-28T03:35:41.635Z,84.58
2017-09-28T03:36:43.517Z,84.86
2017-09-28T03:37:45.337Z,84.58
2017-09-28T03:38:47.165Z,84.77
2017-09-28T03:39:49.059Z,84.86
2017-09-28T03:40:50.952Z,84.86
2017-09-28T03:41:52.836Z,84.86
2017-09-28T03:43:07.041Z,84.77
2017-09-28T03:44:08.923Z,84.95
2017-09-28T03:45:10.809Z,84.77
2017-09-28T03:46:12.690Z,84.48
2017-09-28T03:47:14.508Z,84.86
2017-09-28T03:48:16.335Z,84.77
2017-09-28T03:49:18.224Z,84.58
2017-09-28T03:50:20.105Z,85.05
2017-09-28T03:51:21.990Z,85.05
2017-09-28T03:52:36.148Z,85.44
2017-09-28T03:53:38.038Z,85.44
2017-09-28T03:54:39.931Z,85.53
2017-09-28T03:55:41.813Z,85.44
2017-09-28T03:56:43.629Z,85.53
2017-09-28T03:57:45.457Z,85.53
2017-09-28T03:58:47.343Z,85.53
2017-09-28T03:59:49.222Z,85.53
2017-09-28T04:00:51.108Z,85.05
2017-09-28T04:02:05.270Z,85.63
2017-09-28T04:03:07.146Z,85.53
2017-09-28T04:04:09.032Z,85.34
2017-09-28T04:05:10.915Z,85.53
2017-09-28T04:06:12.743Z,85.30
2017-09-28T04:07:14.558Z,85.49
2017-09-28T04:08:16.452Z,85.63
2017-09-28T04:09:18.333Z,85.39
2017-09-28T04:10:20.227Z,85.39
2017-09-28T04:11:34.385Z,85.21
2017-09-28T04:12:36.264Z,85.30
2017-09-28T04:13:38.152Z,86.07
2017-09-28T04:14:40.032Z,85.68
2017-09-28T04:15:41.860Z,85.97
2017-09-28T04:16:43.682Z,86.45
2017-09-28T04:17:45.567Z,86.45
2017-09-28T04:18:47.451Z,86.64
2017-09-28T04:19:49.336Z,87.31
2017-09-28T04:21:03.491Z,87.02
2017-09-28T04:22:05.375Z,87.02
2017-09-28T04:23:07.261Z,86.83
2017-09-28T04:24:09.141Z,86.54
2017-09-28T04:25:10.958Z,86.54
2017-09-28T04:26:12.775Z,86.35
2017-09-28T04:27:14.659Z,87.07
2017-09-28T04:28:16.553Z,86.74
2017-09-28T04:29:18.439Z,86.54
2017-09-28T04:30:32.591Z,86.83
2017-09-28T04:31:34.473Z,87.31
2017-09-28T04:32:36.383Z,87.64
2017-09-28T04:33:38.267Z,87.64
2017-09-28T04:34:40.100Z,86.88
2017-09-28T04:35:41.919Z,86.68
2017-09-28T04:36:43.803Z,86.11
2017-09-28T04:37:45.698Z,85.92
2017-09-28T04:38:47.584Z,86.21
2017-09-28T04:40:01.789Z,85.49
2017-09-28T04:41:03.672Z,85.44
2017-09-28T04:42:05.558Z,85.39
2017-09-28T04:43:07.440Z,85.30
2017-09-28T04:44:09.269Z,85.78
2017-09-28T04:45:11.090Z,85.88
2017-09-28T04:46:12.975Z,85.88
2017-09-28T04:47:14.859Z,86.54
2017-09-28T04:48:16.749Z,86.30
2017-09-28T04:49:30.903Z,85.82
2017-09-28T04:50:32.786Z,85.34
2017-09-28T04:51:34.680Z,84.72
2017-09-28T04:52:36.562Z,85.49
2017-09-28T04:53:38.395Z,85.58
2017-09-28T04:54:40.216Z,85.58
2017-09-28T04:55:42.102Z,86.30
2017-09-28T04:56:44.000Z,86.78
2017-09-28T04:57:45.880Z,86.21
2017-09-28T04:59:00.086Z,85.53
2017-09-28T05:00:01.971Z,84.77
2017-09-28T05:01:03.857Z,84.77
2017-09-28T05:02:05.740Z,85.15
2017-09-28T05:03:07.561Z,84.77
2017-09-28T05:04:09.381Z,84.28
2017-09-28T05:05:11.273Z,84.19
2017-09-28T05:06:13.158Z,84.38
2017-09-28T05:07:15.044Z,84.58
2017-09-28T05:08:29.203Z,85.25
2017-09-28T05:09:31.086Z,85.05
2017-09-28T05:10:32.976Z,85.00
2017-09-28T05:11:34.858Z,84.77
2017-09-28T05:12:36.680Z,84.77
2017-09-28T05:13:38.502Z,84.61
2017-09-28T05:14:40.391Z,84.33
2017-09-28T05:15:42.276Z,84.33
2017-09-28T05:16:44.163Z,84.42
2017-09-28T05:17:58.324Z,83.75
2017-09-28T05:19:00.205Z,83.08
2017-09-28T05:20:02.102Z,83.56
2017-09-28T05:21:03.990Z,83.94
2017-09-28T05:22:05.833Z,83.37
2017-09-28T05:23:07.656Z,82.89
2017-09-28T05:24:09.546Z,82.60
2017-09-28T05:25:11.432Z,83.12
2017-09-28T05:26:13.324Z,83.70
2017-09-28T05:27:27.524Z,83.51
2017-09-28T05:28:29.413Z,82.93
2017-09-28T05:29:31.312Z,82.84
2017-09-28T05:30:33.200Z,82.68
2017-09-28T05:31:35.026Z,81.82
2017-09-28T05:32:36.849Z,81.63
2017-09-28T05:33:38.744Z,80.96
2017-09-28T05:34:40.632Z,80.96
2017-09-28T05:35:42.533Z,81.15
2017-09-28T05:36:56.695Z,80.96
2017-09-28T05:37:58.581Z,80.66
2017-09-28T05:39:00.479Z,80.19
2017-09-28T05:40:02.391Z,79.71
2017-09-28T05:41:04.222Z,79.71
2017-09-28T05:42:06.058Z,80.19
2017-09-28T05:43:07.949Z,80.47
2017-09-28T05:44:09.836Z,79.71
2017-09-28T05:45:11.723Z,80.19
2017-09-28T05:46:25.893Z,80.28
2017-09-28T05:47:27.782Z,79.90
2017-09-28T05:48:29.681Z,79.61
2017-09-28T05:49:31.579Z,79.32
2017-09-28T05:50:33.404Z,79.55
2017-09-28T05:51:35.226Z,79.22
2017-09-28T05:52:37.127Z,79.65
2017-09-28T05:53:39.011Z,79.36
2017-09-28T05:54:40.911Z,79.07
2017-09-28T05:55:55.070Z,78.69
2017-09-28T05:56:56.957Z,78.98
2017-09-28T05:57:58.857Z,78.88
2017-09-28T05:59:00.744Z,78.63
2017-09-28T06:00:02.603Z,77.67
2017-09-28T06:01:04.437Z,77.09
2017-09-28T06:02:06.326Z,77.09
2017-09-28T06:03:08.217Z,76.77
2017-09-28T06:04:10.185Z,77.34
2017-09-28T06:05:24.382Z,78.02
2017-09-28T06:06:26.274Z,77.63
2017-09-28T06:07:28.158Z,77.63
2017-09-28T06:08:30.045Z,78.02
2017-09-28T06:09:31.866Z,78.02
2017-09-28T06:10:33.691Z,77.25
2017-09-28T06:11:35.580Z,77.63
2017-09-28T06:12:37.467Z,77.48
2017-09-28T06:13:39.357Z,77.83
2017-09-28T06:14:53.521Z,77.29
2017-09-28T06:15:55.406Z,76.71
2017-09-28T06:16:57.296Z,76.90
2017-09-28T06:17:59.183Z,76.90
2017-09-28T06:19:01.005Z,76.71
2017-09-28T06:20:02.833Z,75.75
2017-09-28T06:21:04.758Z,75.75
2017-09-28T06:22:06.645Z,75.75
2017-09-28T06:23:08.545Z,75.84
2017-09-28T06:24:22.705Z,75.84
2017-09-28T06:25:24.603Z,75.75
2017-09-28T06:26:26.504Z,76.04
2017-09-28T06:27:28.395Z,76.71
2017-09-28T06:28:30.220Z,76.71
2017-09-28T06:29:32.062Z,75.79
2017-09-28T06:30:33.950Z,75.69
2017-09-28T06:31:35.839Z,75.88
2017-09-28T06:32:37.744Z,75.59
2017-09-28T06:33:51.902Z,75.31
2017-09-28T06:34:53.790Z,75.11
2017-09-28T06:35:55.680Z,75.69
2017-09-28T06:36:57.567Z,75.98
2017-09-28T06:37:59.403Z,75.98
2017-09-28T06:39:01.238Z,75.31
2017-09-28T06:40:03.133Z,74.92
2017-09-28T06:41:05.014Z,75.11
2017-09-28T06:42:06.917Z,74.73
2017-09-28T06:43:21.079Z,74.92
2017-09-28T06:44:22.968Z,74.54
2017-09-28T06:45:24.856Z,74.44
2017-09-28T06:46:26.743Z,74.57
2017-09-28T06:47:28.582Z,74.29
2017-09-28T06:48:30.419Z,74.29
2017-09-28T06:49:32.311Z,73.90
2017-09-28T06:50:34.198Z,73.32
2017-09-28T06:51:36.113Z,73.42
2017-09-28T06:52:50.273Z,73.32
2017-09-28T06:53:52.161Z,72.94
2017-09-28T06:54:54.098Z,73.13
2017-09-28T06:55:55.987Z,72.94
2017-09-28T06:56:57.818Z,72.94
2017-09-28T06:57:59.644Z,73.22
2017-09-28T06:59:01.534Z,72.84
2017-09-28T07:00:03.423Z,73.03
2017-09-28T07:01:05.312Z,72.84
2017-09-28T07:02:19.475Z,72.84
2017-09-28T07:03:21.363Z,73.03
2017-09-28T07:04:23.264Z,73.32
2017-09-28T07:05:25.161Z,73.03
2017-09-28T07:06:26.983Z,73.03
2017-09-28T07:07:28.818Z,72.74
2017-09-28T07:08:30.709Z,73.13
2017-09-28T07:09:32.595Z,73.03
2017-09-28T07:10:34.489Z,72.84
2017-09-28T07:11:48.650Z,73.22
2017-09-28T07:12:50.536Z,72.94
2017-09-28T07:13:52.429Z,73.13
2017-09-28T07:14:54.315Z,72.78
2017-09-28T07:15:56.139Z,72.55
2017-09-28T07:16:57.970Z,72.49
2017-09-28T07:17:59.856Z,72.39
2017-09-28T07:19:01.746Z,72.68
2017-09-28T07:20:03.639Z,72.20
2017-09-28T07:21:17.802Z,72.49
2017-09-28T07:22:19.691Z,72.39
2017-09-28T07:23:21.581Z,72.39
2017-09-28T07:24:23.471Z,72.49
2017-09-28T07:25:25.298Z,72.01
2017-09-28T07:26:27.135Z,72.01
2017-09-28T07:27:29.026Z,71.72
2017-09-28T07:28:30.926Z,71.62
2017-09-28T07:29:32.830Z,71.72
2017-09-28T07:30:47.044Z,71.28
2017-09-28T07:31:48.934Z,71.37
2017-09-28T07:32:50.824Z,70.98
2017-09-28T07:33:52.727Z,70.79
2017-09-28T07:34:54.550Z,70.98
2017-09-28T07:35:56.377Z,70.50
2017-09-28T07:36:58.269Z,69.93
2017-09-28T07:38:00.159Z,70.44
2017-09-28T07:39:02.053Z,70.06
2017-09-28T07:40:16.216Z,70.15
2017-09-28T07:41:18.132Z,69.67
2017-09-28T07:42:20.066Z,69.48
2017-09-28T07:43:21.956Z,69.67
2017-09-28T07:44:23.835Z,69.29
2017-09-28T07:45:25.727Z,69.09
2017-09-28T07:46:27.638Z,68.99
2017-09-28T07:47:29.528Z,68.99
2017-09-28T07:48:31.433Z,69.09
2017-09-28T07:49:45.593Z,69.48
2017-09-28T07:50:47.483Z,69.38
2017-09-28T07:51:49.373Z,69.67
2017-09-28T07:52:51.259Z,69.67
2017-09-28T07:53:53.098Z,69.57
2017-09-28T07:54:54.924Z,69.96
2017-09-28T07:55:56.816Z,69.57
2017-09-28T07:56:58.705Z,69.77
2017-09-28T07:58:00.597Z,69.38
2017-09-28T07:59:14.761Z,69.38
2017-09-28T08:00:16.694Z,69.67
2017-09-28T08:01:18.585Z,69.38
2017-09-28T08:02:20.485Z,69.29
2017-09-28T08:03:22.312Z,69.48
2017-09-28T08:04:24.138Z,69.67
2017-09-28T08:05:26.056Z,69.38
2017-09-28T08:06:27.947Z,69.38
2017-09-28T08:07:29.840Z,69.38
2017-09-28T08:08:44.053Z,69.09
2017-09-28T08:09:45.944Z,68.90
2017-09-28T08:10:47.835Z,68.99
2017-09-28T08:11:49.724Z,69.29
2017-09-28T08:12:51.550Z,69.38
2017-09-28T08:13:53.375Z,68.90
2017-09-28T08:14:55.267Z,68.55
2017-09-28T08:15:57.157Z,68.32
2017-09-28T08:16:59.048Z,68.45
2017-09-28T08:18:13.221Z,68.45
2017-09-28T08:19:15.111Z,68.07
2017-09-28T08:20:17.012Z,67.97
2017-09-28T08:21:18.904Z,67.97
2017-09-28T08:22:20.731Z,67.30
2017-09-28T08:23:22.556Z,67.49
2017-09-28T08:24:24.453Z,67.49
2017-09-28T08:25:26.343Z,67.88
2017-09-28T08:26:28.239Z,67.49
2017-09-28T08:27:42.402Z,67.68
2017-09-28T08:28:44.292Z,67.78
2017-09-28T08:29:46.182Z,67.78
2017-09-28T08:30:48.081Z,67.68
2017-09-28T08:31:49.896Z,67.78
2017-09-28T08:32:51.737Z,67.58
2017-09-28T08:33:53.631Z,67.78
2017-09-28T08:34:55.518Z,67.78
2017-09-28T08:35:57.412Z,67.10
2017-09-28T08:37:11.600Z,67.58
2017-09-28T08:38:13.514Z,67.88
2017-09-28T08:39:15.451Z,67.97
2017-09-28T08:40:17.394Z,67.30
2017-09-28T08:41:19.256Z,67.71
2017-09-28T08:42:21.091Z,67.62
2017-09-28T08:43:23.001Z,67.81
2017-09-28T08:44:24.889Z,67.52
2017-09-28T08:45:26.781Z,67.04
2017-09-28T08:46:41.006Z,67.88
2017-09-28T08:47:42.898Z,67.58
2017-09-28T08:48:44.788Z,67.78
2017-09-28T08:49:46.691Z,67.58
2017-09-28T08:50:48.515Z,67.58
2017-09-28T08:51:50.343Z,67.97
2017-09-28T08:52:52.237Z,67.88
2017-09-28T08:53:54.127Z,67.00
2017-09-28T08:54:56.022Z,67.49
2017-09-28T08:56:10.188Z,67.58
2017-09-28T08:57:12.080Z,67.49
2017-09-28T08:58:13.969Z,67.20
2017-09-28T08:59:15.857Z,67.49
2017-09-28T09:00:17.694Z,67.10
2017-09-28T09:01:19.520Z,66.94
2017-09-28T09:02:21.412Z,66.94
2017-09-28T09:03:23.303Z,66.85
2017-09-28T09:04:25.194Z,66.43
2017-09-28T09:05:39.369Z,66.75
2017-09-28T09:06:41.260Z,66.75
2017-09-28T09:07:43.152Z,66.17
2017-09-28T09:08:45.045Z,65.50
2017-09-28T09:09:46.872Z,65.78
2017-09-28T09:10:48.712Z,65.40
2017-09-28T09:11:50.604Z,65.24
2017-09-28T09:12:52.504Z,65.24
2017-09-28T09:13:54.397Z,64.56
2017-09-28T09:15:08.561Z,64.86
2017-09-28T09:16:10.451Z,65.05
2017-09-28T09:17:12.345Z,65.05
2017-09-28T09:18:14.236Z,64.47
2017-09-28T09:19:16.061Z,64.47
2017-09-28T09:20:17.891Z,64.18
2017-09-28T09:21:19.787Z,64.47
2017-09-28T09:22:21.688Z,64.18
2017-09-28T09:23:23.586Z,64.11
2017-09-28T09:24:37.754Z,64.01
2017-09-28T09:25:39.640Z,63.63
2017-09-28T09:26:41.531Z,62.95
2017-09-28T09:27:43.423Z,62.95
2017-09-28T09:28:45.262Z,63.24
2017-09-28T09:29:47.091Z,63.15
2017-09-28T09:30:48.984Z,62.86
2017-09-28T09:31:50.885Z,62.89
2017-09-28T09:32:52.793Z,63.05
2017-09-28T09:34:07.003Z,62.70
2017-09-28T09:35:08.898Z,62.50
2017-09-28T09:36:10.796Z,62.50
2017-09-28T09:37:12.688Z,61.92
2017-09-28T09:38:14.516Z,62.02
2017-09-28T09:39:16.342Z,61.92
2017-09-28T09:40:18.236Z,62.12
2017-09-28T09:41:20.138Z,62.05
2017-09-28T09:42:22.032Z,62.05
2017-09-28T09:43:36.201Z,62.05
2017-09-28T09:44:38.092Z,62.15
2017-09-28T09:45:39.984Z,61.08
2017-09-28T09:46:41.878Z,61.37
2017-09-28T09:47:43.719Z,61.47
2017-09-28T09:48:45.551Z,61.60
2017-09-28T09:49:47.450Z,61.02
2017-09-28T09:50:49.341Z,60.72
2017-09-28T09:51:51.234Z,60.82
2017-09-28T09:53:05.455Z,60.69
2017-09-28T09:54:07.347Z,60.69
2017-09-28T09:55:09.236Z,60.41
2017-09-28T09:56:11.143Z,61.37
2017-09-28T09:57:12.969Z,61.34
2017-09-28T09:58:14.799Z,62.05
2017-09-28T09:59:16.694Z,62.02
2017-09-28T10:00:18.586Z,62.02
2017-09-28T10:01:20.481Z,61.83
2017-09-28T10:02:34.668Z,62.02
2017-09-28T10:03:36.561Z,61.92
2017-09-28T10:04:38.452Z,62.02
2017-09-28T10:05:40.341Z,61.83
2017-09-28T10:06:42.169Z,61.73
2017-09-28T10:07:43.996Z,61.63
2017-09-28T10:08:45.890Z,62.21
2017-09-28T10:09:47.780Z,62.21
2017-09-28T10:10:49.685Z,62.47
2017-09-28T10:12:03.850Z,62.86
2017-09-28T10:13:05.740Z,62.76
2017-09-28T10:14:07.633Z,62.76
2017-09-28T10:15:09.524Z,62.95
2017-09-28T10:16:11.350Z,63.34
2017-09-28T10:17:13.187Z,63.05
2017-09-28T10:18:15.083Z,62.95
2017-09-28T10:19:16.971Z,63.15
2017-09-28T10:20:18.866Z,63.15
2017-09-28T10:21:33.030Z,63.53
2017-09-28T10:22:34.920Z,63.82
2017-09-28T10:23:36.813Z,63.89
2017-09-28T10:24:38.702Z,63.82
2017-09-28T10:25:40.540Z,64.18
2017-09-28T10:26:42.372Z,63.79
2017-09-28T10:27:44.260Z,63.98
2017-09-28T10:28:46.149Z,64.86
2017-09-28T10:29:48.044Z,64.18
2017-09-28T10:31:02.247Z,64.76
2017-09-28T10:32:04.162Z,64.37
2017-09-28T10:33:06.080Z,64.08
2017-09-28T10:34:07.981Z,64.18
2017-09-28T10:35:09.808Z,63.70
2017-09-28T10:36:11.633Z,64.08
2017-09-28T10:37:13.527Z,64.76
2017-09-28T10:38:15.426Z,64.28
2017-09-28T10:39:17.318Z,63.98
2017-09-28T10:40:31.479Z,64.37
2017-09-28T10:41:33.369Z,64.28
2017-09-28T10:42:35.270Z,64.28
2017-09-28T10:43:37.162Z,64.37
2017-09-28T10:44:39.000Z,64.28
2017-09-28T10:45:40.826Z,64.76
2017-09-28T10:46:42.720Z,63.98
2017-09-28T10:47:44.623Z,63.89
2017-09-28T10:48:46.526Z,63.89
2017-09-28T10:50:00.689Z,64.18
2017-09-28T10:51:02.596Z,63.79
2017-09-28T10:52:04.487Z,63.79
2017-09-28T10:53:06.387Z,64.37
2017-09-28T10:54:08.223Z,64.76
2017-09-28T10:55:10.061Z,64.56
2017-09-28T10:56:11.955Z,64.47
2017-09-28T10:57:13.845Z,64.95
2017-09-28T10:58:15.746Z,64.95
2017-09-28T10:59:29.907Z,64.95
2017-09-28T11:00:31.797Z,65.24
2017-09-28T11:01:33.689Z,65.24
2017-09-28T11:02:35.582Z,65.34
2017-09-28T11:03:37.407Z,65.20
2017-09-28T11:04:39.248Z,65.14
2017-09-28T11:05:41.140Z,64.76
2017-09-28T11:06:43.026Z,64.86
2017-09-28T11:07:44.921Z,64.76
2017-09-28T11:08:59.083Z,64.47
2017-09-28T11:10:00.974Z,64.28
2017-09-28T11:11:02.875Z,64.37
2017-09-28T11:12:04.777Z,64.37
2017-09-28T11:13:06.604Z,64.76
2017-09-28T11:14:08.430Z,63.98
2017-09-28T11:15:10.327Z,64.01
2017-09-28T11:16:12.223Z,63.92
2017-09-28T11:17:14.113Z,64.11
2017-09-28T11:18:28.375Z,63.73
2017-09-28T11:19:30.275Z,63.15
2017-09-28T11:20:32.192Z,63.15
2017-09-28T11:21:34.067Z,63.05
2017-09-28T11:22:35.895Z,62.95
2017-09-28T11:23:37.723Z,63.15
2017-09-28T11:24:39.617Z,62.57
2017-09-28T11:25:41.524Z,62.76
2017-09-28T11:26:43.443Z,62.86
2017-09-28T11:27:57.607Z,62.95
2017-09-28T11:28:59.528Z,63.08
2017-09-28T11:30:01.418Z,62.89
2017-09-28T11:31:03.306Z,62.89
2017-09-28T11:32:05.143Z,62.50
2017-09-28T11:33:06.970Z,62.50
2017-09-28T11:34:08.862Z,62.70
2017-09-28T11:35:10.754Z,62.31
2017-09-28T11:36:12.647Z,62.50
2017-09-28T11:37:26.813Z,62.31
2017-09-28T11:38:28.703Z,61.92
2017-09-28T11:39:30.595Z,62.21
2017-09-28T11:40:32.484Z,61.83
2017-09-28T11:41:34.323Z,61.83
2017-09-28T11:42:36.152Z,62.02
2017-09-28T11:43:38.046Z,61.34
2017-09-28T11:44:39.936Z,61.83
2017-09-28T11:45:41.829Z,61.05
2017-09-28T11:46:55.994Z,61.44
2017-09-28T11:47:57.883Z,61.66
2017-09-28T11:48:59.789Z,61.47
2017-09-28T11:50:01.731Z,61.18
2017-09-28T11:51:03.558Z,61.21
2017-09-28T11:52:05.401Z,60.79
2017-09-28T11:53:07.300Z,61.11
2017-09-28T11:54:09.199Z,61.37
2017-09-28T11:55:11.113Z,61.27
2017-09-28T11:56:25.278Z,61.08
2017-09-28T11:57:27.168Z,61.57
2017-09-28T11:58:29.061Z,61.47
2017-09-28T11:59:30.953Z,61.40
2017-09-28T12:00:32.781Z,61.40
2017-09-28T12:01:34.610Z,61.50
2017-09-28T12:02:36.506Z,61.21
2017-09-28T12:03:38.398Z,60.92
2017-09-28T12:04:40.287Z,60.82
2017-09-28T12:05:54.455Z,60.34
2017-09-28T12:06:56.347Z,60.44
2017-09-28T12:07:58.241Z,60.34
2017-09-28T12:09:00.199Z,60.34
2017-09-28T12:10:01.994Z,60.24
2017-09-28T12:11:03.821Z,60.27
2017-09-28T12:12:05.713Z,60.27
2017-09-28T12:13:07.617Z,59.98
2017-09-28T12:14:09.512Z,59.89
2017-09-28T12:15:23.729Z,59.50
2017-09-28T12:16:25.626Z,59.11
2017-09-28T12:17:27.555Z,58.72
2017-09-28T12:18:29.448Z,58.53
2017-09-28T12:19:31.287Z,58.24
2017-09-28T12:20:33.115Z,58.37
2017-09-28T12:21:34.971Z,58.04
2017-09-28T12:22:36.875Z,57.66
2017-09-28T12:23:38.766Z,57.76
2017-09-28T12:24:52.949Z,57.59
2017-09-28T12:25:54.842Z,57.08
2017-09-28T12:26:56.738Z,57.20
2017-09-28T12:27:58.969Z,57.11
2017-09-28T12:29:00.845Z,57.40
2017-09-28T12:30:02.675Z,57.50
2017-09-28T12:31:04.570Z,57.30
2017-09-28T12:32:06.464Z,57.40
2017-09-28T12:33:08.358Z,57.33
2017-09-28T12:34:22.737Z,56.75
2017-09-28T12:35:24.634Z,56.75
2017-09-28T12:36:26.549Z,56.82
2017-09-28T12:37:28.438Z,57.01
2017-09-28T12:38:30.283Z,56.82
2017-09-28T12:39:32.210Z,56.82
2017-09-28T12:40:34.112Z,56.82
2017-09-28T12:41:36.012Z,56.56
2017-09-28T12:42:37.950Z,56.62
2017-09-28T12:43:52.135Z,56.62
2017-09-28T12:44:54.013Z,56.43
2017-09-28T12:45:55.908Z,56.72
2017-09-28T12:46:57.821Z,56.62
2017-09-28T12:47:59.662Z,56.82
2017-09-28T12:49:01.493Z,57.11
2017-09-28T12:50:03.393Z,57.33
2017-09-28T12:51:05.281Z,57.30
2017-09-28T12:52:07.173Z,57.01
2017-09-28T12:53:21.377Z,57.69
2017-09-28T12:54:23.270Z,57.79
2017-09-28T12:55:25.162Z,57.69
2017-09-28T12:56:27.139Z,57.59
2017-09-28T12:57:28.979Z,58.07
2017-09-28T12:58:30.805Z,57.69
2017-09-28T12:59:32.739Z,57.30
2017-09-28T13:00:34.632Z,57.40
2017-09-28T13:01:36.610Z,57.88
2017-09-28T13:02:50.762Z,57.88
2017-09-28T13:03:52.655Z,57.69
2017-09-28T13:04:54.955Z,57.69
2017-09-28T13:05:57.345Z,57.79
2017-09-28T13:06:59.285Z,57.20
2017-09-28T13:08:01.245Z,57.20
2017-09-28T13:09:03.298Z,57.01
2017-09-28T13:10:05.264Z,57.69
2017-09-28T13:11:07.161Z,57.79
2017-09-28T13:12:21.333Z,57.69
2017-09-28T13:13:23.255Z,57.69
2017-09-28T13:14:25.151Z,57.69
2017-09-28T13:15:27.072Z,57.79
2017-09-28T13:16:28.938Z,57.88
2017-09-28T13:17:31.115Z,57.43
2017-09-28T13:18:33.067Z,57.30
2017-09-28T13:19:35.009Z,57.69
2017-09-28T13:20:37.012Z,57.59
2017-09-28T13:21:51.589Z,57.20
2017-09-28T13:22:53.556Z,57.79
2017-09-28T13:23:55.460Z,57.69
2017-09-28T13:24:57.381Z,57.30
2017-09-28T13:25:59.243Z,57.79
2017-09-28T13:27:01.072Z,57.59
2017-09-28T13:28:02.968Z,58.17
2017-09-28T13:29:04.863Z,58.65
2017-09-28T13:30:06.761Z,58.65
2017-09-28T13:31:20.932Z,58.65
2017-09-28T13:32:23.167Z,58.85
2017-09-28T13:33:25.208Z,58.82
2017-09-28T13:34:27.458Z,58.63